<?xml version='1.0' encoding='UTF-8'?><gpx version="1.1" creator="JPX - https://github.com/jenetics/jpx" xmlns="http://www.topografix.com/GPX/1/1"><trk><trkseg><trkpt lat="53.764691616748934" lon="11.097808371641582"><ele>50.0</ele><time>2026-04-23T17:51:36.978Z</time></trkpt><trkpt lat="53.764694851931345" lon="11.097684134330914"><ele>50.0</ele><time>2026-04-23T17:51:44.978Z</time></trkpt><trkpt lat="53.76475035195336" lon="11.097574599512978"><ele>50.0</ele><time>2026-04-23T17:51:47.978Z</time></trkpt><trkpt lat="53.76483659263258" lon="11.09757529640289"><ele>50.0</ele><time>2026-04-23T17:51:54.978Z</time></trkpt><trkpt lat="53.76495291706812" lon="11.097581247789973"><ele>50.0</ele><time>2026-04-23T17:51:58.978Z</time></trkpt><trkpt lat="53.76510192208441" lon="11.097588613420765"><ele>50.00000000000001</ele><time>2026-04-23T17:52:02.978Z</time></trkpt><trkpt lat="53.76519201918494" lon="11.097610592067362"><ele>50.0</ele><time>2026-04-23T17:52:04.978Z</time></trkpt><trkpt lat="53.76530504821318" lon="11.097635440925938"><ele>50.0</ele><time>2026-04-23T17:52:06.978Z</time></trkpt><trkpt lat="53.76536862267969" lon="11.097633932853997"><ele>50.0</ele><time>2026-04-23T17:52:07.979Z</time></trkpt><trkpt lat="53.76544468755133" lon="11.097580636995156"><ele>50.00000000000001</ele><time>2026-04-23T17:52:08.979Z</time></trkpt><trkpt lat="53.765509835265014" lon="11.09749595278038"><ele>50.0</ele><time>2026-04-23T17:52:09.979Z</time></trkpt><trkpt lat="53.765554532449926" lon="11.097393304788755"><ele>49.50000000000001</ele><time>2026-04-23T17:52:10.979Z</time></trkpt><trkpt lat="53.76553165903078" lon="11.097260173509191"><ele>49.0</ele><time>2026-04-23T17:52:11.979Z</time></trkpt><trkpt lat="53.76549938392396" lon="11.09711770643412"><ele>48.5</ele><time>2026-04-23T17:52:12.979Z</time></trkpt><trkpt lat="53.765464414105445" lon="11.096968287773088"><ele>48.0</ele><time>2026-04-23T17:52:13.979Z</time></trkpt><trkpt lat="53.765442139881905" lon="11.096829530694825"><ele>47.5</ele><time>2026-04-23T17:52:14.979Z</time></trkpt><trkpt lat="53.76541424030431" lon="11.096687475471956"><ele>47.0</ele><time>2026-04-23T17:52:15.979Z</time></trkpt><trkpt lat="53.76538353921913" lon="11.096552005885671"><ele>47.0</ele><time>2026-04-23T17:52:16.979Z</time></trkpt><trkpt lat="53.76533118177803" lon="11.096440911355522"><ele>47.0</ele><time>2026-04-23T17:52:17.979Z</time></trkpt><trkpt lat="53.76525191599819" lon="11.096372073068984"><ele>47.0</ele><time>2026-04-23T17:52:18.979Z</time></trkpt><trkpt lat="53.76516104803228" lon="11.09633859497827"><ele>47.0</ele><time>2026-04-23T17:52:19.979Z</time></trkpt><trkpt lat="53.76505906578511" lon="11.096340555457928"><ele>47.0</ele><time>2026-04-23T17:52:20.979Z</time></trkpt><trkpt lat="53.76495079994609" lon="11.096340548851533"><ele>47.400000000000006</ele><time>2026-04-23T17:52:21.979Z</time></trkpt><trkpt lat="53.76484249966479" lon="11.09634351923469"><ele>47.800000000000004</ele><time>2026-04-23T17:52:22.979Z</time></trkpt><trkpt lat="53.76474535171538" lon="11.096309839917714"><ele>48.2</ele><time>2026-04-23T17:52:23.979Z</time></trkpt><trkpt lat="53.764667398973295" lon="11.096277049345879"><ele>48.6</ele><time>2026-04-23T17:52:24.979Z</time></trkpt><trkpt lat="53.76459192850595" lon="11.096221589122264"><ele>49.0</ele><time>2026-04-23T17:52:26.979Z</time></trkpt><trkpt lat="53.764617549496215" lon="11.09608767238226"><ele>48.99999999999999</ele><time>2026-04-23T17:52:28.979Z</time></trkpt><trkpt lat="53.76466015087085" lon="11.09598997424185"><ele>49.0</ele><time>2026-04-23T17:52:29.979Z</time></trkpt><trkpt lat="53.76472460295982" lon="11.095933531179943"><ele>49.0</ele><time>2026-04-23T17:52:30.979Z</time></trkpt><trkpt lat="53.764794553200225" lon="11.095850658023094"><ele>49.0</ele><time>2026-04-23T17:52:31.979Z</time></trkpt><trkpt lat="53.76487083165218" lon="11.095741218142896"><ele>48.99999999999999</ele><time>2026-04-23T17:52:32.979Z</time></trkpt><trkpt lat="53.764963785416896" lon="11.095644087513127"><ele>49.0</ele><time>2026-04-23T17:52:33.979Z</time></trkpt><trkpt lat="53.765058722195704" lon="11.095537079277234"><ele>48.6</ele><time>2026-04-23T17:52:34.979Z</time></trkpt><trkpt lat="53.765146715680736" lon="11.095429899518601"><ele>48.2</ele><time>2026-04-23T17:52:35.979Z</time></trkpt><trkpt lat="53.765223345209826" lon="11.095311213197276"><ele>47.800000000000004</ele><time>2026-04-23T17:52:36.979Z</time></trkpt><trkpt lat="53.765298607412205" lon="11.095229805281297"><ele>47.400000000000006</ele><time>2026-04-23T17:52:37.979Z</time></trkpt><trkpt lat="53.76535682061417" lon="11.09517385527377"><ele>47.0</ele><time>2026-04-23T17:52:38.979Z</time></trkpt><trkpt lat="53.765476650625" lon="11.09515283672239"><ele>47.0</ele><time>2026-04-23T17:52:40.979Z</time></trkpt><trkpt lat="53.7655306219467" lon="11.09528438946869"><ele>47.0</ele><time>2026-04-23T17:52:41.979Z</time></trkpt><trkpt lat="53.76556691310648" lon="11.095414007803466"><ele>47.0</ele><time>2026-04-23T17:52:42.979Z</time></trkpt><trkpt lat="53.7656132820003" lon="11.095572289349096"><ele>47.0</ele><time>2026-04-23T17:52:43.979Z</time></trkpt><trkpt lat="53.76566772839475" lon="11.095748276820146"><ele>47.0</ele><time>2026-04-23T17:52:44.979Z</time></trkpt><trkpt lat="53.76572198608392" lon="11.095937572529994"><ele>47.0</ele><time>2026-04-23T17:52:45.979Z</time></trkpt><trkpt lat="53.76578365059634" lon="11.096133617914333"><ele>47.0</ele><time>2026-04-23T17:52:46.979Z</time></trkpt><trkpt lat="53.76584732557587" lon="11.096342695527799"><ele>47.0</ele><time>2026-04-23T17:52:47.979Z</time></trkpt><trkpt lat="53.76591539210221" lon="11.096570760648502"><ele>47.0</ele><time>2026-04-23T17:52:48.979Z</time></trkpt><trkpt lat="53.76598136919793" lon="11.096815439037385"><ele>46.33333333333333</ele><time>2026-04-23T17:52:49.979Z</time></trkpt><trkpt lat="53.7660502752173" lon="11.09706227219062"><ele>45.666666666666664</ele><time>2026-04-23T17:52:50.979Z</time></trkpt><trkpt lat="53.76611963218493" lon="11.0973047969848"><ele>45.0</ele><time>2026-04-23T17:52:51.979Z</time></trkpt><trkpt lat="53.76621178662604" lon="11.097551863132828"><ele>45.0</ele><time>2026-04-23T17:52:52.979Z</time></trkpt><trkpt lat="53.76630071045638" lon="11.097816812130551"><ele>45.0</ele><time>2026-04-23T17:52:53.979Z</time></trkpt><trkpt lat="53.766423153915866" lon="11.09805690155329"><ele>45.0</ele><time>2026-04-23T17:52:54.979Z</time></trkpt><trkpt lat="53.766574377722925" lon="11.098234092468608"><ele>45.0</ele><time>2026-04-23T17:52:55.979Z</time></trkpt><trkpt lat="53.76673019780421" lon="11.098401359105878"><ele>45.0</ele><time>2026-04-23T17:52:56.979Z</time></trkpt><trkpt lat="53.76690299847634" lon="11.098524362163163"><ele>45.0</ele><time>2026-04-23T17:52:57.979Z</time></trkpt><trkpt lat="53.76709176814502" lon="11.098603168296153"><ele>44.666666666666664</ele><time>2026-04-23T17:52:58.979Z</time></trkpt><trkpt lat="53.76726865855049" lon="11.098735171455814"><ele>44.33333333333333</ele><time>2026-04-23T17:52:59.979Z</time></trkpt><trkpt lat="53.76745698628826" lon="11.098846681354932"><ele>44.0</ele><time>2026-04-23T17:53:00.979Z</time></trkpt><trkpt lat="53.76762982039607" lon="11.099026126471937"><ele>43.33333333333333</ele><time>2026-04-23T17:53:01.979Z</time></trkpt><trkpt lat="53.7677983677979" lon="11.099193245706479"><ele>42.666666666666664</ele><time>2026-04-23T17:53:02.979Z</time></trkpt><trkpt lat="53.76796061460046" lon="11.099377232629086"><ele>42.0</ele><time>2026-04-23T17:53:03.979Z</time></trkpt><trkpt lat="53.76810691475146" lon="11.099570462349622"><ele>42.0</ele><time>2026-04-23T17:53:04.979Z</time></trkpt><trkpt lat="53.76827301244244" lon="11.09975240619721"><ele>42.0</ele><time>2026-04-23T17:53:05.979Z</time></trkpt><trkpt lat="53.76841353431926" lon="11.099945794141496"><ele>42.0</ele><time>2026-04-23T17:53:06.979Z</time></trkpt><trkpt lat="53.76854808866949" lon="11.100167753972352"><ele>42.0</ele><time>2026-04-23T17:53:07.979Z</time></trkpt><trkpt lat="53.76868611576273" lon="11.100363005307754"><ele>42.0</ele><time>2026-04-23T17:53:08.979Z</time></trkpt><trkpt lat="53.76882465892771" lon="11.100560519013884"><ele>42.0</ele><time>2026-04-23T17:53:09.979Z</time></trkpt><trkpt lat="53.7689632419674" lon="11.100758746677103"><ele>42.0</ele><time>2026-04-23T17:53:10.979Z</time></trkpt><trkpt lat="53.76909178114754" lon="11.100950619667616"><ele>42.0</ele><time>2026-04-23T17:53:11.979Z</time></trkpt><trkpt lat="53.769221137217215" lon="11.10115516023008"><ele>42.0</ele><time>2026-04-23T17:53:12.979Z</time></trkpt><trkpt lat="53.76935376596949" lon="11.101383060613852"><ele>44.33333333333333</ele><time>2026-04-23T17:53:13.979Z</time></trkpt><trkpt lat="53.76948099884072" lon="11.101610846751361"><ele>46.666666666666664</ele><time>2026-04-23T17:53:14.979Z</time></trkpt><trkpt lat="53.769617798474165" lon="11.10184250111948"><ele>49.0</ele><time>2026-04-23T17:53:15.979Z</time></trkpt><trkpt lat="53.769741217242455" lon="11.10209176991957"><ele>49.0</ele><time>2026-04-23T17:53:16.979Z</time></trkpt><trkpt lat="53.769872872217235" lon="11.102327494979365"><ele>49.0</ele><time>2026-04-23T17:53:17.979Z</time></trkpt><trkpt lat="53.7700037250773" lon="11.102529838607019"><ele>49.0</ele><time>2026-04-23T17:53:18.979Z</time></trkpt><trkpt lat="53.77014438520546" lon="11.102753412297846"><ele>49.0</ele><time>2026-04-23T17:53:19.979Z</time></trkpt><trkpt lat="53.77029461819974" lon="11.102957310994906"><ele>49.0</ele><time>2026-04-23T17:53:20.979Z</time></trkpt><trkpt lat="53.77043750641378" lon="11.103125551931482"><ele>49.0</ele><time>2026-04-23T17:53:21.979Z</time></trkpt><trkpt lat="53.7705768114809" lon="11.103297358298118"><ele>48.0</ele><time>2026-04-23T17:53:22.979Z</time></trkpt><trkpt lat="53.77071786167192" lon="11.103405385590866"><ele>47.0</ele><time>2026-04-23T17:53:23.979Z</time></trkpt><trkpt lat="53.77087432685192" lon="11.103539307767493"><ele>46.0</ele><time>2026-04-23T17:53:24.979Z</time></trkpt><trkpt lat="53.771015428325995" lon="11.103707280661332"><ele>48.333333333333336</ele><time>2026-04-23T17:53:25.979Z</time></trkpt><trkpt lat="53.771160469969566" lon="11.10384216902228"><ele>50.66666666666667</ele><time>2026-04-23T17:53:26.979Z</time></trkpt><trkpt lat="53.77130498845433" lon="11.104000176933127"><ele>53.0</ele><time>2026-04-23T17:53:27.979Z</time></trkpt><trkpt lat="53.771437193851895" lon="11.10416439482315"><ele>53.0</ele><time>2026-04-23T17:53:28.979Z</time></trkpt><trkpt lat="53.77157430633084" lon="11.104287264054696"><ele>53.0</ele><time>2026-04-23T17:53:29.979Z</time></trkpt><trkpt lat="53.77170571859758" lon="11.104472277103035"><ele>53.0</ele><time>2026-04-23T17:53:30.979Z</time></trkpt><trkpt lat="53.77181126143461" lon="11.104665996858476"><ele>54.25</ele><time>2026-04-23T17:53:31.979Z</time></trkpt><trkpt lat="53.771939805661795" lon="11.104787177567715"><ele>55.5</ele><time>2026-04-23T17:53:32.979Z</time></trkpt><trkpt lat="53.77206531515867" lon="11.104927799698677"><ele>56.75</ele><time>2026-04-23T17:53:33.979Z</time></trkpt><trkpt lat="53.77218746843646" lon="11.105063754805757"><ele>58.0</ele><time>2026-04-23T17:53:34.979Z</time></trkpt><trkpt lat="53.772322141524384" lon="11.105212805143871"><ele>58.33333333333333</ele><time>2026-04-23T17:53:35.979Z</time></trkpt><trkpt lat="53.772452779868956" lon="11.105365542449315"><ele>58.66666666666667</ele><time>2026-04-23T17:53:36.979Z</time></trkpt><trkpt lat="53.77260390856332" lon="11.105470124578572"><ele>59.0</ele><time>2026-04-23T17:53:37.979Z</time></trkpt><trkpt lat="53.77273810477286" lon="11.105619192152265"><ele>58.66666666666667</ele><time>2026-04-23T17:53:38.979Z</time></trkpt><trkpt lat="53.77286766176795" lon="11.105784049744402"><ele>58.33333333333333</ele><time>2026-04-23T17:53:39.979Z</time></trkpt><trkpt lat="53.77298207530194" lon="11.105952425927102"><ele>58.0</ele><time>2026-04-23T17:53:40.979Z</time></trkpt><trkpt lat="53.77312902500002" lon="11.106115915269912"><ele>58.0</ele><time>2026-04-23T17:53:41.979Z</time></trkpt><trkpt lat="53.773272406880025" lon="11.106275435121614"><ele>58.0</ele><time>2026-04-23T17:53:42.979Z</time></trkpt><trkpt lat="53.77341196601" lon="11.106427340572722"><ele>58.0</ele><time>2026-04-23T17:53:43.979Z</time></trkpt><trkpt lat="53.77356950288349" lon="11.106593396458166"><ele>58.33333333333333</ele><time>2026-04-23T17:53:44.979Z</time></trkpt><trkpt lat="53.77374366077114" lon="11.106781814066323"><ele>58.66666666666667</ele><time>2026-04-23T17:53:45.979Z</time></trkpt><trkpt lat="53.773908038923565" lon="11.106978591084806"><ele>59.0</ele><time>2026-04-23T17:53:46.979Z</time></trkpt><trkpt lat="53.77405538415164" lon="11.107187444589705"><ele>58.0</ele><time>2026-04-23T17:53:47.979Z</time></trkpt><trkpt lat="53.77418780799675" lon="11.107482361217269"><ele>57.0</ele><time>2026-04-23T17:53:48.979Z</time></trkpt><trkpt lat="53.77427836169637" lon="11.107792141061994"><ele>56.0</ele><time>2026-04-23T17:53:49.979Z</time></trkpt><trkpt lat="53.77431036469696" lon="11.10812616980802"><ele>56.0</ele><time>2026-04-23T17:53:50.979Z</time></trkpt><trkpt lat="53.77435843456477" lon="11.10847275133956"><ele>56.0</ele><time>2026-04-23T17:53:51.979Z</time></trkpt><trkpt lat="53.77440287291717" lon="11.108799226752327"><ele>56.0</ele><time>2026-04-23T17:53:52.979Z</time></trkpt><trkpt lat="53.77442468487591" lon="11.10911285869122"><ele>56.0</ele><time>2026-04-23T17:53:53.979Z</time></trkpt><trkpt lat="53.77443911232623" lon="11.1094043161106"><ele>56.0</ele><time>2026-04-23T17:53:54.979Z</time></trkpt><trkpt lat="53.77445848847751" lon="11.109731286799164"><ele>56.0</ele><time>2026-04-23T17:53:55.979Z</time></trkpt><trkpt lat="53.77447773688958" lon="11.110047119049286"><ele>55.66666666666667</ele><time>2026-04-23T17:53:56.98Z</time></trkpt><trkpt lat="53.774498735805494" lon="11.110383877156416"><ele>55.33333333333333</ele><time>2026-04-23T17:53:57.98Z</time></trkpt><trkpt lat="53.77451646206467" lon="11.110697484777864"><ele>55.0</ele><time>2026-04-23T17:53:58.98Z</time></trkpt><trkpt lat="53.77453394682334" lon="11.111010370377436"><ele>54.0</ele><time>2026-04-23T17:53:59.98Z</time></trkpt><trkpt lat="53.774556847572676" lon="11.111296485724495"><ele>53.0</ele><time>2026-04-23T17:54:00.98Z</time></trkpt><trkpt lat="53.77456813829254" lon="11.111546627611384"><ele>52.0</ele><time>2026-04-23T17:54:01.98Z</time></trkpt><trkpt lat="53.774593124718145" lon="11.11179751329447"><ele>51.666666666666664</ele><time>2026-04-23T17:54:02.98Z</time></trkpt><trkpt lat="53.77460693023848" lon="11.112080234456096"><ele>51.33333333333333</ele><time>2026-04-23T17:54:03.98Z</time></trkpt><trkpt lat="53.77462981463526" lon="11.112354349141649"><ele>51.0</ele><time>2026-04-23T17:54:04.98Z</time></trkpt><trkpt lat="53.77464380757924" lon="11.112641918472718"><ele>50.33333333333333</ele><time>2026-04-23T17:54:05.98Z</time></trkpt><trkpt lat="53.774661922739014" lon="11.112954911446186"><ele>49.666666666666664</ele><time>2026-04-23T17:54:06.98Z</time></trkpt><trkpt lat="53.77467428536757" lon="11.113280509423175"><ele>49.0</ele><time>2026-04-23T17:54:07.98Z</time></trkpt><trkpt lat="53.774721345065" lon="11.11358835297157"><ele>48.666666666666664</ele><time>2026-04-23T17:54:08.98Z</time></trkpt><trkpt lat="53.77477580060465" lon="11.11389183168046"><ele>48.33333333333333</ele><time>2026-04-23T17:54:09.98Z</time></trkpt><trkpt lat="53.77488018084412" lon="11.114192076112001"><ele>48.0</ele><time>2026-04-23T17:54:10.98Z</time></trkpt><trkpt lat="53.77498273047781" lon="11.114451672647577"><ele>47.666666666666664</ele><time>2026-04-23T17:54:11.98Z</time></trkpt><trkpt lat="53.77509091793796" lon="11.114688214860415"><ele>47.33333333333333</ele><time>2026-04-23T17:54:12.98Z</time></trkpt><trkpt lat="53.775190361780794" lon="11.114912387892451"><ele>47.0</ele><time>2026-04-23T17:54:13.98Z</time></trkpt><trkpt lat="53.77531029004617" lon="11.115135166739147"><ele>48.33333333333333</ele><time>2026-04-23T17:54:14.98Z</time></trkpt><trkpt lat="53.77541230649616" lon="11.115381691154907"><ele>49.666666666666664</ele><time>2026-04-23T17:54:15.98Z</time></trkpt><trkpt lat="53.77550097760007" lon="11.115595966096494"><ele>51.0</ele><time>2026-04-23T17:54:16.98Z</time></trkpt><trkpt lat="53.77560652199563" lon="11.115858369621856"><ele>51.66666666666667</ele><time>2026-04-23T17:54:17.98Z</time></trkpt><trkpt lat="53.775708257477085" lon="11.116111874909711"><ele>52.333333333333336</ele><time>2026-04-23T17:54:18.98Z</time></trkpt><trkpt lat="53.77584872747528" lon="11.116340009718675"><ele>53.0</ele><time>2026-04-23T17:54:19.98Z</time></trkpt><trkpt lat="53.77594118620819" lon="11.116566444090134"><ele>53.333333333333336</ele><time>2026-04-23T17:54:20.98Z</time></trkpt><trkpt lat="53.77605058704132" lon="11.116842550290901"><ele>53.66666666666667</ele><time>2026-04-23T17:54:21.98Z</time></trkpt><trkpt lat="53.77615472947507" lon="11.117090257826666"><ele>54.0</ele><time>2026-04-23T17:54:22.98Z</time></trkpt><trkpt lat="53.77625243224479" lon="11.117328009616104"><ele>54.33333333333333</ele><time>2026-04-23T17:54:23.98Z</time></trkpt><trkpt lat="53.77635264279257" lon="11.117573475867959"><ele>54.666666666666664</ele><time>2026-04-23T17:54:24.98Z</time></trkpt><trkpt lat="53.7764393410948" lon="11.11780812849247"><ele>55.0</ele><time>2026-04-23T17:54:25.98Z</time></trkpt><trkpt lat="53.77652267438155" lon="11.118006137702166"><ele>54.99999999999999</ele><time>2026-04-23T17:54:26.98Z</time></trkpt><trkpt lat="53.77658752197237" lon="11.118181919545343"><ele>55.0</ele><time>2026-04-23T17:54:27.98Z</time></trkpt><trkpt lat="53.77663725647235" lon="11.118330530532198"><ele>55.0</ele><time>2026-04-23T17:54:28.98Z</time></trkpt><trkpt lat="53.77665798928966" lon="11.11843653732535"><ele>55.0</ele><time>2026-04-23T17:54:29.98Z</time></trkpt><trkpt lat="53.77666840439961" lon="11.118566241561942"><ele>54.99999999999999</ele><time>2026-04-23T17:54:31.98Z</time></trkpt><trkpt lat="53.77665602034005" lon="11.11846011531661"><ele>55.0</ele><time>2026-04-23T17:55:12.98Z</time></trkpt><trkpt lat="53.776638670297096" lon="11.11829919494839"><ele>55.0</ele><time>2026-04-23T17:55:14.98Z</time></trkpt><trkpt lat="53.77656824370224" lon="11.118075107524445"><ele>55.0</ele><time>2026-04-23T17:55:15.98Z</time></trkpt><trkpt lat="53.77650102833108" lon="11.117885100303685"><ele>55.0</ele><time>2026-04-23T17:55:16.98Z</time></trkpt><trkpt lat="53.77643153430611" lon="11.117695671851749"><ele>55.0</ele><time>2026-04-23T17:55:17.98Z</time></trkpt><trkpt lat="53.77635731992436" lon="11.117540669816677"><ele>54.75</ele><time>2026-04-23T17:55:18.98Z</time></trkpt><trkpt lat="53.77630657180882" lon="11.117393130357875"><ele>54.5</ele><time>2026-04-23T17:55:19.98Z</time></trkpt><trkpt lat="53.77623780806043" lon="11.117198635610128"><ele>54.25</ele><time>2026-04-23T17:55:20.98Z</time></trkpt><trkpt lat="53.77615484302361" lon="11.116966049339869"><ele>54.0</ele><time>2026-04-23T17:55:21.98Z</time></trkpt><trkpt lat="53.77606776454046" lon="11.116723350511593"><ele>53.75</ele><time>2026-04-23T17:55:22.98Z</time></trkpt><trkpt lat="53.775976166279854" lon="11.116493923440538"><ele>53.5</ele><time>2026-04-23T17:55:23.98Z</time></trkpt><trkpt lat="53.775866240724945" lon="11.11635700045948"><ele>53.25</ele><time>2026-04-23T17:55:24.98Z</time></trkpt><trkpt lat="53.77579227901878" lon="11.116141936247718"><ele>53.0</ele><time>2026-04-23T17:55:25.98Z</time></trkpt><trkpt lat="53.775718656366145" lon="11.115912662774136"><ele>52.333333333333336</ele><time>2026-04-23T17:55:26.98Z</time></trkpt><trkpt lat="53.77563516917971" lon="11.115704630745459"><ele>51.66666666666667</ele><time>2026-04-23T17:55:27.98Z</time></trkpt><trkpt lat="53.77554861457055" lon="11.115490599139346"><ele>51.0</ele><time>2026-04-23T17:55:28.98Z</time></trkpt><trkpt lat="53.77545514228391" lon="11.115264721791748"><ele>51.0</ele><time>2026-04-23T17:55:29.98Z</time></trkpt><trkpt lat="53.77536738492995" lon="11.11505265489131"><ele>51.0</ele><time>2026-04-23T17:55:30.98Z</time></trkpt><trkpt lat="53.77525630805925" lon="11.114825929456353"><ele>51.0</ele><time>2026-04-23T17:55:31.98Z</time></trkpt><trkpt lat="53.77517095227047" lon="11.114584320840137"><ele>50.0</ele><time>2026-04-23T17:55:32.98Z</time></trkpt><trkpt lat="53.77508177499952" lon="11.114371888613029"><ele>49.0</ele><time>2026-04-23T17:55:33.98Z</time></trkpt><trkpt lat="53.77497869880644" lon="11.114126347760982"><ele>48.0</ele><time>2026-04-23T17:55:34.98Z</time></trkpt><trkpt lat="53.77487217149335" lon="11.113875100949624"><ele>48.0</ele><time>2026-04-23T17:55:35.98Z</time></trkpt><trkpt lat="53.77477215603676" lon="11.113607594203938"><ele>48.0</ele><time>2026-04-23T17:55:36.98Z</time></trkpt><trkpt lat="53.774709253595105" lon="11.113315995062031"><ele>48.0</ele><time>2026-04-23T17:55:37.98Z</time></trkpt><trkpt lat="53.77467772579672" lon="11.113023561970502"><ele>48.33333333333333</ele><time>2026-04-23T17:55:38.98Z</time></trkpt><trkpt lat="53.774697210182644" lon="11.112739080473698"><ele>48.666666666666664</ele><time>2026-04-23T17:55:39.98Z</time></trkpt><trkpt lat="53.774675831303384" lon="11.112467040723944"><ele>49.0</ele><time>2026-04-23T17:55:40.98Z</time></trkpt><trkpt lat="53.77464850992558" lon="11.112190204766156"><ele>49.666666666666664</ele><time>2026-04-23T17:55:41.98Z</time></trkpt><trkpt lat="53.774635206525474" lon="11.111930568891355"><ele>50.33333333333333</ele><time>2026-04-23T17:55:42.98Z</time></trkpt><trkpt lat="53.77461112746883" lon="11.111673010128685"><ele>51.0</ele><time>2026-04-23T17:55:43.98Z</time></trkpt><trkpt lat="53.77459947966015" lon="11.111401259093622"><ele>51.33333333333333</ele><time>2026-04-23T17:55:44.98Z</time></trkpt><trkpt lat="53.77458387010428" lon="11.11112988651003"><ele>51.666666666666664</ele><time>2026-04-23T17:55:45.98Z</time></trkpt><trkpt lat="53.77454464022005" lon="11.110883531316937"><ele>52.0</ele><time>2026-04-23T17:55:46.98Z</time></trkpt><trkpt lat="53.774543939763355" lon="11.110590806171452"><ele>53.0</ele><time>2026-04-23T17:55:47.98Z</time></trkpt><trkpt lat="53.77451280406006" lon="11.110325084040253"><ele>54.0</ele><time>2026-04-23T17:55:48.98Z</time></trkpt><trkpt lat="53.77451283212514" lon="11.110073878679636"><ele>55.0</ele><time>2026-04-23T17:55:49.98Z</time></trkpt><trkpt lat="53.774495356558816" lon="11.109789660238699"><ele>55.33333333333333</ele><time>2026-04-23T17:55:50.98Z</time></trkpt><trkpt lat="53.77447900092126" lon="11.109513660129545"><ele>55.66666666666667</ele><time>2026-04-23T17:55:51.98Z</time></trkpt><trkpt lat="53.77446305911582" lon="11.109244643903933"><ele>56.0</ele><time>2026-04-23T17:55:52.98Z</time></trkpt><trkpt lat="53.77444772003875" lon="11.108985798084014"><ele>56.0</ele><time>2026-04-23T17:55:53.98Z</time></trkpt><trkpt lat="53.77442997402932" lon="11.108686335995957"><ele>56.0</ele><time>2026-04-23T17:55:54.98Z</time></trkpt><trkpt lat="53.77441287326857" lon="11.108399246813862"><ele>56.0</ele><time>2026-04-23T17:55:55.98Z</time></trkpt><trkpt lat="53.77439306349204" lon="11.108123160357545"><ele>56.0</ele><time>2026-04-23T17:55:56.98Z</time></trkpt><trkpt lat="53.77436772914185" lon="11.107848295334867"><ele>56.0</ele><time>2026-04-23T17:55:57.98Z</time></trkpt><trkpt lat="53.77429864876666" lon="11.10758316233218"><ele>56.0</ele><time>2026-04-23T17:55:58.98Z</time></trkpt><trkpt lat="53.77421676328491" lon="11.107327809352265"><ele>57.0</ele><time>2026-04-23T17:55:59.98Z</time></trkpt><trkpt lat="53.77409460353916" lon="11.107108432791485"><ele>58.0</ele><time>2026-04-23T17:56:00.98Z</time></trkpt><trkpt lat="53.77397544514849" lon="11.10690172867563"><ele>59.0</ele><time>2026-04-23T17:56:01.98Z</time></trkpt><trkpt lat="53.77383497483597" lon="11.106733601766564"><ele>58.66666666666667</ele><time>2026-04-23T17:56:02.98Z</time></trkpt><trkpt lat="53.773684880037955" lon="11.10656731697628"><ele>58.33333333333333</ele><time>2026-04-23T17:56:03.98Z</time></trkpt><trkpt lat="53.77354749446453" lon="11.106420387297254"><ele>58.0</ele><time>2026-04-23T17:56:04.98Z</time></trkpt><trkpt lat="53.77340158038215" lon="11.10626693422678"><ele>58.0</ele><time>2026-04-23T17:56:05.98Z</time></trkpt><trkpt lat="53.77326751269732" lon="11.106118768624842"><ele>58.0</ele><time>2026-04-23T17:56:06.98Z</time></trkpt><trkpt lat="53.773137280664606" lon="11.105973879047353"><ele>58.0</ele><time>2026-04-23T17:56:07.98Z</time></trkpt><trkpt lat="53.7730040599685" lon="11.105825663937702"><ele>58.33333333333333</ele><time>2026-04-23T17:56:08.98Z</time></trkpt><trkpt lat="53.772871566596635" lon="11.105678258199022"><ele>58.66666666666667</ele><time>2026-04-23T17:56:09.98Z</time></trkpt><trkpt lat="53.7727382653358" lon="11.10552995326121"><ele>59.0</ele><time>2026-04-23T17:56:10.98Z</time></trkpt><trkpt lat="53.772615353653606" lon="11.105392036528368"><ele>59.0</ele><time>2026-04-23T17:56:11.98Z</time></trkpt><trkpt lat="53.77249099232409" lon="11.105250872028408"><ele>59.0</ele><time>2026-04-23T17:56:12.98Z</time></trkpt><trkpt lat="53.77232989107856" lon="11.105070401779555"><ele>59.0</ele><time>2026-04-23T17:56:13.98Z</time></trkpt><trkpt lat="53.77217824026367" lon="11.10490256152959"><ele>58.66666666666667</ele><time>2026-04-23T17:56:14.98Z</time></trkpt><trkpt lat="53.7720279316384" lon="11.104734372265193"><ele>58.33333333333333</ele><time>2026-04-23T17:56:15.98Z</time></trkpt><trkpt lat="53.77188002308428" lon="11.104570436911672"><ele>58.0</ele><time>2026-04-23T17:56:16.98Z</time></trkpt><trkpt lat="53.77175175828941" lon="11.10443422326256"><ele>57.0</ele><time>2026-04-23T17:56:17.98Z</time></trkpt><trkpt lat="53.771612668457685" lon="11.104286756254952"><ele>56.0</ele><time>2026-04-23T17:56:18.98Z</time></trkpt><trkpt lat="53.77147091947177" lon="11.10413412861334"><ele>55.0</ele><time>2026-04-23T17:56:19.98Z</time></trkpt><trkpt lat="53.771343680909546" lon="11.10399450847758"><ele>55.0</ele><time>2026-04-23T17:56:20.98Z</time></trkpt><trkpt lat="53.77121574823456" lon="11.103851710772078"><ele>55.0</ele><time>2026-04-23T17:56:21.98Z</time></trkpt><trkpt lat="53.77105639696943" lon="11.103674305913051"><ele>55.0</ele><time>2026-04-23T17:56:22.98Z</time></trkpt><trkpt lat="53.770905985891815" lon="11.103512917552166"><ele>53.0</ele><time>2026-04-23T17:56:23.98Z</time></trkpt><trkpt lat="53.770762158375085" lon="11.103356198732804"><ele>51.0</ele><time>2026-04-23T17:56:24.98Z</time></trkpt><trkpt lat="53.77059430770694" lon="11.103172566778527"><ele>49.0</ele><time>2026-04-23T17:56:25.98Z</time></trkpt><trkpt lat="53.77042169347415" lon="11.102982578354625"><ele>49.0</ele><time>2026-04-23T17:56:26.98Z</time></trkpt><trkpt lat="53.77026586890985" lon="11.102806637125356"><ele>49.0</ele><time>2026-04-23T17:56:27.98Z</time></trkpt><trkpt lat="53.77010718591901" lon="11.102618134511701"><ele>49.0</ele><time>2026-04-23T17:56:28.98Z</time></trkpt><trkpt lat="53.769936400079935" lon="11.102376779454978"><ele>49.0</ele><time>2026-04-23T17:56:29.98Z</time></trkpt><trkpt lat="53.769790069805296" lon="11.10212788750048"><ele>49.0</ele><time>2026-04-23T17:56:30.98Z</time></trkpt><trkpt lat="53.76967398360734" lon="11.101909871757575"><ele>49.0</ele><time>2026-04-23T17:56:31.98Z</time></trkpt><trkpt lat="53.76954684454774" lon="11.101659432410862"><ele>50.666666666666664</ele><time>2026-04-23T17:56:32.98Z</time></trkpt><trkpt lat="53.76941427568759" lon="11.101406884331896"><ele>52.33333333333333</ele><time>2026-04-23T17:56:33.98Z</time></trkpt><trkpt lat="53.76928517840476" lon="11.101185328629345"><ele>54.0</ele><time>2026-04-23T17:56:34.98Z</time></trkpt><trkpt lat="53.7691523490104" lon="11.100968057883769"><ele>51.0</ele><time>2026-04-23T17:56:35.98Z</time></trkpt><trkpt lat="53.76901668983125" lon="11.100762441961816"><ele>48.0</ele><time>2026-04-23T17:56:36.98Z</time></trkpt><trkpt lat="53.76885458212168" lon="11.100529729295014"><ele>45.0</ele><time>2026-04-23T17:56:37.98Z</time></trkpt><trkpt lat="53.768726101682205" lon="11.100346561778762"><ele>45.0</ele><time>2026-04-23T17:56:38.98Z</time></trkpt><trkpt lat="53.768636166092186" lon="11.100218892882353"><ele>45.0</ele><time>2026-04-23T17:56:39.98Z</time></trkpt><trkpt lat="53.768518617599355" lon="11.100053036072936"><ele>45.0</ele><time>2026-04-23T17:56:40.98Z</time></trkpt><trkpt lat="53.76840251909036" lon="11.099891634693693"><ele>45.0</ele><time>2026-04-23T17:56:41.98Z</time></trkpt><trkpt lat="53.768279415487804" lon="11.099724446065581"><ele>44.25</ele><time>2026-04-23T17:56:42.981Z</time></trkpt><trkpt lat="53.768150070021825" lon="11.099587772730073"><ele>43.5</ele><time>2026-04-23T17:56:43.981Z</time></trkpt><trkpt lat="53.76804208478285" lon="11.099406720578964"><ele>42.75</ele><time>2026-04-23T17:56:44.981Z</time></trkpt><trkpt lat="53.76793611508309" lon="11.099288322494754"><ele>42.0</ele><time>2026-04-23T17:56:45.981Z</time></trkpt><trkpt lat="53.767832962762" lon="11.099120080022217"><ele>42.5</ele><time>2026-04-23T17:56:46.981Z</time></trkpt><trkpt lat="53.767732746531685" lon="11.098989614317487"><ele>43.0</ele><time>2026-04-23T17:56:47.981Z</time></trkpt><trkpt lat="53.76762510689317" lon="11.098859611804224"><ele>43.5</ele><time>2026-04-23T17:56:48.981Z</time></trkpt><trkpt lat="53.767516329050174" lon="11.098772661361542"><ele>44.0</ele><time>2026-04-23T17:56:49.981Z</time></trkpt><trkpt lat="53.76740566506151" lon="11.098682330757892"><ele>44.0</ele><time>2026-04-23T17:56:50.981Z</time></trkpt><trkpt lat="53.76731320068096" lon="11.098605497551713"><ele>44.0</ele><time>2026-04-23T17:56:51.981Z</time></trkpt><trkpt lat="53.767199629769095" lon="11.098532481753754"><ele>44.0</ele><time>2026-04-23T17:56:52.981Z</time></trkpt><trkpt lat="53.76708658768666" lon="11.09846783477736"><ele>44.0</ele><time>2026-04-23T17:56:53.981Z</time></trkpt><trkpt lat="53.76698061148975" lon="11.098410668098765"><ele>44.0</ele><time>2026-04-23T17:56:54.981Z</time></trkpt><trkpt lat="53.766903842666515" lon="11.098366202546513"><ele>44.0</ele><time>2026-04-23T17:56:55.981Z</time></trkpt><trkpt lat="53.76683047672963" lon="11.098332608355555"><ele>44.0</ele><time>2026-04-23T17:56:57.981Z</time></trkpt><trkpt lat="53.766651503144196" lon="11.098780892190232"><ele>44.166666666666664</ele><time>2026-04-23T17:56:59.981Z</time></trkpt><trkpt lat="53.76657339712313" lon="11.098837700408357"><ele>44.33333333333333</ele><time>2026-04-23T17:57:00.981Z</time></trkpt><trkpt lat="53.766492119121324" lon="11.098826897025413"><ele>44.5</ele><time>2026-04-23T17:57:01.981Z</time></trkpt><trkpt lat="53.766427151344615" lon="11.09884232493717"><ele>44.666666666666664</ele><time>2026-04-23T17:57:02.981Z</time></trkpt><trkpt lat="53.766343451659196" lon="11.098798392080548"><ele>44.833333333333336</ele><time>2026-04-23T17:57:03.981Z</time></trkpt><trkpt lat="53.76626835192866" lon="11.098766416476193"><ele>45.0</ele><time>2026-04-23T17:57:04.981Z</time></trkpt><trkpt lat="53.766201631882154" lon="11.098696606146154"><ele>45.0</ele><time>2026-04-23T17:57:05.981Z</time></trkpt><trkpt lat="53.76613672829937" lon="11.098666913390803"><ele>45.0</ele><time>2026-04-23T17:57:06.981Z</time></trkpt><trkpt lat="53.76606260092861" lon="11.098611268706701"><ele>45.0</ele><time>2026-04-23T17:57:07.981Z</time></trkpt><trkpt lat="53.766001345814985" lon="11.098558703391754"><ele>45.0</ele><time>2026-04-23T17:57:08.981Z</time></trkpt><trkpt lat="53.765960362821446" lon="11.09847388340847"><ele>45.0</ele><time>2026-04-23T17:57:09.981Z</time></trkpt><trkpt lat="53.7659359931645" lon="11.098274184404092"><ele>45.0</ele><time>2026-04-23T17:57:11.981Z</time></trkpt><trkpt lat="53.7659139632518" lon="11.09816259554512"><ele>45.4</ele><time>2026-04-23T17:57:12.981Z</time></trkpt><trkpt lat="53.765832363810325" lon="11.097956946670429"><ele>45.8</ele><time>2026-04-23T17:57:14.981Z</time></trkpt><trkpt lat="53.765747424723116" lon="11.097923537040785"><ele>46.2</ele><time>2026-04-23T17:57:15.981Z</time></trkpt><trkpt lat="53.765666301599275" lon="11.097879530330156"><ele>46.6</ele><time>2026-04-23T17:57:16.981Z</time></trkpt><trkpt lat="53.76560082305433" lon="11.097828215086977"><ele>47.0</ele><time>2026-04-23T17:57:17.981Z</time></trkpt><trkpt lat="53.76553919122673" lon="11.097766603006784"><ele>47.0</ele><time>2026-04-23T17:57:18.981Z</time></trkpt><trkpt lat="53.76547245282578" lon="11.097715781148223"><ele>47.0</ele><time>2026-04-23T17:57:19.981Z</time></trkpt><trkpt lat="53.7653781592171" lon="11.097707622573584"><ele>47.0</ele><time>2026-04-23T17:57:21.981Z</time></trkpt><trkpt lat="53.76527995775539" lon="11.097681396816652"><ele>47.0</ele><time>2026-04-23T17:57:23.981Z</time></trkpt><trkpt lat="53.76516949025993" lon="11.097683268211261"><ele>47.0</ele><time>2026-04-23T17:57:25.981Z</time></trkpt><trkpt lat="53.76508678520606" lon="11.097696610897728"><ele>47.5</ele><time>2026-04-23T17:57:27.981Z</time></trkpt><trkpt lat="53.765007892662275" lon="11.09770872344378"><ele>48.0</ele><time>2026-04-23T17:57:29.981Z</time></trkpt><trkpt lat="53.76490467272453" lon="11.097707896652908"><ele>48.5</ele><time>2026-04-23T17:57:31.981Z</time></trkpt><trkpt lat="53.7648300497593" lon="11.097773185607748"><ele>49.0</ele><time>2026-04-23T17:57:34.982Z</time></trkpt><trkpt lat="53.76476700638427" lon="11.0978280489314"><ele>49.50000000000001</ele><time>2026-04-23T17:57:36.985Z</time></trkpt><trkpt lat="53.76473142975689" lon="11.09799221455249"><ele>50.0</ele><time>2026-04-23T17:57:41.99Z</time></trkpt><trkpt lat="53.76467993740927" lon="11.097920014154456"><ele>50.0</ele><time>2026-04-23T17:58:01.998Z</time></trkpt><trkpt lat="53.76471030227189" lon="11.098016397875941"><ele>50.0</ele><time>2026-04-23T17:58:13Z</time></trkpt><trkpt lat="53.764846730638446" lon="11.097923733530118"><ele>50.0</ele><time>2026-04-23T18:06:12Z</time></trkpt><trkpt lat="53.764900593595364" lon="11.09786384907212"><ele>50.0</ele><time>2026-04-23T18:06:53Z</time></trkpt><trkpt lat="53.76491514263827" lon="11.097750612173591"><ele>50.0</ele><time>2026-04-23T18:06:59Z</time></trkpt><trkpt lat="53.76473077187102" lon="11.097998979450438"><ele>50.0</ele><time>2026-04-23T18:10:17.001Z</time></trkpt><trkpt lat="53.764665023120806" lon="11.09798832217943"><ele>50.0</ele><time>2026-04-23T18:11:51.001Z</time></trkpt><trkpt lat="53.76461170079071" lon="11.098051011235784"><ele>50.0</ele><time>2026-04-23T18:12:28Z</time></trkpt></trkseg></trk></gpx>